Time,TemperatureF,DewpointF,PressureIn,WindDirection,WindDirectionDegrees,WindSpeedMPH,WindSpeedGustMPH,Humidity,HourlyPrecipIn,Conditions,Clouds,dailyrainin,SoftwareType,DateUTC
2013-10-23 00:00:00,56.0,51.9,29.83,NNW,337,0.0,0.0,86,0.00,,,0.00,Wunderground v.1.15,2013-10-23 07:00:00,
2013-10-23 00:10:00,55.7,51.6,29.82,NNW,337,0.0,0.0,86,0.00,,,0.00,Wunderground v.1.15,2013-10-23 07:10:00,
2013-10-23 00:15:00,55.5,51.4,29.82,NNW,337,0.0,0.0,86,0.00,,,0.00,Wunderground v.1.15,2013-10-23 07:15:00,
2013-10-23 00:20:00,55.5,51.4,29.82,NNW,337,0.0,0.0,86,0.00,,,0.00,Wunderground v.1.15,2013-10-23 07:20:00,
2013-10-23 00:30:00,55.4,51.6,29.82,NNW,337,0.0,0.0,87,0.00,,,0.00,Wunderground v.1.15,2013-10-23 07:30:00,
2013-10-23 00:35:00,55.4,51.6,29.82,NNW,337,0.0,0.0,87,0.00,,,0.00,Wunderground v.1.15,2013-10-23 07:35:00,
2013-10-23 00:46:00,55.4,51.6,29.82,NNW,337,0.0,0.0,87,0.00,,,0.00,Wunderground v.1.15,2013-10-23 07:46:00,
2013-10-23 00:50:00,55.4,51.9,29.82,NNW,337,0.0,0.0,88,0.00,,,0.00,Wunderground v.1.15,2013-10-23 07:50:00,
2013-10-23 01:00:00,55.8,52.3,29.82,NNW,337,0.0,0.0,88,0.00,,,0.00,Wunderground v.1.15,2013-10-23 08:00:00,
2013-10-23 01:05:00,56.0,52.5,29.82,NNW,337,0.0,0.0,88,0.00,,,0.00,Wunderground v.1.15,2013-10-23 08:05:00,
2013-10-23 01:20:00,57.2,54.0,29.83,NNW,337,1.0,1.0,89,0.00,,,0.00,Wunderground v.1.15,2013-10-23 08:20:00,
2013-10-23 01:25:00,57.5,54.3,29.83,NNW,337,1.0,1.0,89,0.00,,,0.00,Wunderground v.1.15,2013-10-23 08:25:00,
2013-10-23 01:35:00,58.0,54.8,29.82,NNW,337,0.0,0.0,89,0.00,,,0.00,Wunderground v.1.15,2013-10-23 08:35:00,
2013-10-23 01:40:00,58.0,54.8,29.82,NNW,337,0.0,0.0,89,0.00,,,0.00,Wunderground v.1.15,2013-10-23 08:40:00,
2013-10-23 01:45:00,58.1,54.9,29.82,NNW,337,0.0,0.0,89,0.00,,,0.00,Wunderground v.1.15,2013-10-23 08:45:00,
2013-10-23 01:55:00,58.3,54.8,29.82,NNW,337,0.0,0.0,88,0.00,,,0.00,Wunderground v.1.15,2013-10-23 08:55:00,
2013-10-23 02:00:00,58.4,54.9,29.82,NNW,337,0.0,0.0,88,0.00,,,0.00,Wunderground v.1.15,2013-10-23 09:00:00,
2013-10-23 02:15:00,58.7,55.2,29.82,NNW,337,0.0,0.0,88,0.00,,,0.00,Wunderground v.1.15,2013-10-23 09:15:00,
2013-10-23 02:30:00,58.9,55.0,29.82,NNW,337,0.0,2.0,87,0.00,,,0.00,Wunderground v.1.15,2013-10-23 09:30:00,
2013-10-23 02:40:00,59.0,55.1,29.82,NNW,337,1.0,1.0,87,0.00,,,0.00,Wunderground v.1.15,2013-10-23 09:40:00,
2013-10-23 02:50:00,59.2,55.3,29.82,NNW,337,0.0,0.0,87,0.00,,,0.00,Wunderground v.1.15,2013-10-23 09:50:00,
2013-10-23 02:55:00,59.2,55.0,29.82,NNW,337,0.0,0.0,86,0.00,,,0.00,Wunderground v.1.15,2013-10-23 09:55:00,
2013-10-23 03:06:00,59.2,55.0,29.82,NNW,337,0.0,0.0,86,0.00,,,0.00,Wunderground v.1.15,2013-10-23 10:06:00,
2013-10-23 03:10:00,59.2,55.0,29.82,NNW,337,0.0,0.0,86,0.00,,,0.00,Wunderground v.1.15,2013-10-23 10:10:00,
2013-10-23 03:15:00,59.2,55.0,29.82,NNW,337,0.0,0.0,86,0.00,,,0.00,Wunderground v.1.15,2013-10-23 10:15:00,
2013-10-23 03:25:00,59.4,55.2,29.81,NNW,337,0.0,0.0,86,0.00,,,0.00,Wunderground v.1.15,2013-10-23 10:25:00,
2013-10-23 03:30:00,59.4,55.2,29.81,NNW,337,0.0,0.0,86,0.00,,,0.00,Wunderground v.1.15,2013-10-23 10:30:00,
2013-10-23 03:40:00,59.5,55.0,29.81,NNW,337,0.0,0.0,85,0.00,,,0.00,Wunderground v.1.15,2013-10-23 10:40:00,
2013-10-23 03:50:00,59.5,55.0,29.80,NNW,337,0.0,0.0,85,0.00,,,0.00,Wunderground v.1.15,2013-10-23 10:50:00,
2013-10-23 03:55:00,59.7,55.2,29.80,NNW,337,0.0,0.0,85,0.00,,,0.00,Wunderground v.1.15,2013-10-23 10:55:00,
2013-10-23 04:06:00,59.7,55.2,29.81,NNW,337,0.0,0.0,85,0.00,,,0.00,Wunderground v.1.15,2013-10-23 11:06:00,
2013-10-23 04:15:00,59.7,55.2,29.81,NNW,337,0.0,1.0,85,0.00,,,0.00,Wunderground v.1.15,2013-10-23 11:15:00,
2013-10-23 04:25:00,59.8,55.3,29.80,NNW,337,0.0,0.0,85,0.00,,,0.00,Wunderground v.1.15,2013-10-23 11:25:00,
2013-10-23 04:30:00,59.8,55.3,29.80,NNW,337,0.0,0.0,85,0.00,,,0.00,Wunderground v.1.15,2013-10-23 11:30:00,
2013-10-23 04:45:00,59.7,54.9,29.80,NNW,337,0.0,0.0,84,0.00,,,0.00,Wunderground v.1.15,2013-10-23 11:45:00,
2013-10-23 04:50:00,59.7,54.9,29.80,NNW,337,0.0,0.0,84,0.00,,,0.00,Wunderground v.1.15,2013-10-23 11:50:00,
2013-10-23 05:01:00,59.7,54.9,29.80,NNW,337,0.0,0.0,84,0.00,,,0.00,Wunderground v.1.15,2013-10-23 12:01:00,
2013-10-23 05:05:00,59.7,54.9,29.80,NNW,337,0.0,0.0,84,0.00,,,0.00,Wunderground v.1.15,2013-10-23 12:05:00,
2013-10-23 05:10:00,59.7,54.9,29.80,NNW,337,0.0,0.0,84,0.00,,,0.00,Wunderground v.1.15,2013-10-23 12:10:00,
2013-10-23 05:20:00,59.7,54.9,29.80,NNW,337,0.0,0.0,84,0.00,,,0.00,Wunderground v.1.15,2013-10-23 12:20:00,
2013-10-23 05:25:00,59.7,54.9,29.80,NNW,337,0.0,0.0,84,0.00,,,0.00,Wunderground v.1.15,2013-10-23 12:25:00,
2013-10-23 05:30:00,59.7,54.9,29.80,NNW,337,0.0,0.0,84,0.00,,,0.00,Wunderground v.1.15,2013-10-23 12:30:00,
2013-10-23 05:40:00,59.8,54.6,29.81,NNW,337,0.0,0.0,83,0.00,,,0.00,Wunderground v.1.15,2013-10-23 12:40:00,
2013-10-23 05:45:00,59.8,54.6,29.81,NNW,337,0.0,0.0,83,0.00,,,0.00,Wunderground v.1.15,2013-10-23 12:45:00,
2013-10-23 05:55:00,59.8,54.6,29.81,NNW,337,0.0,1.0,83,0.00,,,0.00,Wunderground v.1.15,2013-10-23 12:55:00,
2013-10-23 06:00:00,59.8,54.6,29.81,NNW,337,0.0,0.0,83,0.00,,,0.00,Wunderground v.1.15,2013-10-23 13:00:00,
2013-10-23 06:05:00,59.8,54.6,29.81,NNW,337,0.0,0.0,83,0.00,,,0.00,Wunderground v.1.15,2013-10-23 13:05:00,
2013-10-23 06:15:00,59.8,54.6,29.81,NNW,337,0.0,0.0,83,0.00,,,0.00,Wunderground v.1.15,2013-10-23 13:15:00,
2013-10-23 06:20:00,59.8,54.6,29.81,NNW,337,0.0,0.0,83,0.00,,,0.00,Wunderground v.1.15,2013-10-23 13:20:00,
2013-10-23 06:25:00,59.8,54.6,29.81,NNW,337,0.0,0.0,83,0.00,,,0.00,Wunderground v.1.15,2013-10-23 13:25:00,
2013-10-23 06:35:00,60.0,54.8,29.81,NNW,337,0.0,0.0,83,0.00,,,0.00,Wunderground v.1.15,2013-10-23 13:35:00,
2013-10-23 06:40:00,60.0,54.8,29.81,NNW,337,0.0,0.0,83,0.00,,,0.00,Wunderground v.1.15,2013-10-23 13:40:00,
2013-10-23 06:45:00,60.0,54.8,29.81,NNW,337,0.0,0.0,83,0.00,,,0.00,Wunderground v.1.15,2013-10-23 13:45:00,
2013-10-23 06:55:00,60.0,54.5,29.81,NNW,337,0.0,0.0,82,0.00,,,0.00,Wunderground v.1.15,2013-10-23 13:55:00,
2013-10-23 07:00:00,60.0,54.5,29.81,NNW,337,0.0,0.0,82,0.00,,,0.00,Wunderground v.1.15,2013-10-23 14:00:00,
2013-10-23 07:05:00,60.0,54.5,29.81,NNW,337,0.0,0.0,82,0.00,,,0.00,Wunderground v.1.15,2013-10-23 14:05:00,
2013-10-23 07:15:00,60.0,54.5,29.81,NNW,337,0.0,0.0,82,0.00,,,0.00,Wunderground v.1.15,2013-10-23 14:15:00,
2013-10-23 07:20:00,60.1,54.6,29.81,NNW,337,0.0,0.0,82,0.00,,,0.00,Wunderground v.1.15,2013-10-23 14:20:00,
2013-10-23 07:35:00,60.3,54.4,29.81,NNW,337,0.0,0.0,81,0.00,,,0.00,Wunderground v.1.15,2013-10-23 14:35:00,
2013-10-23 07:40:00,60.3,54.4,29.81,NNW,337,0.0,0.0,81,0.00,,,0.00,Wunderground v.1.15,2013-10-23 14:40:00,
2013-10-23 07:45:00,60.3,54.4,29.81,NNW,337,0.0,0.0,81,0.00,,,0.00,Wunderground v.1.15,2013-10-23 14:45:00,
2013-10-23 07:55:00,60.5,54.6,29.82,NNW,337,0.0,0.0,81,0.00,,,0.00,Wunderground v.1.15,2013-10-23 14:55:00,
2013-10-23 08:00:00,60.5,54.6,29.82,NNW,337,0.0,0.0,81,0.00,,,0.00,Wunderground v.1.15,2013-10-23 15:00:00,
2013-10-23 08:05:00,60.6,54.7,29.83,NNW,337,0.0,0.0,81,0.00,,,0.00,Wunderground v.1.15,2013-10-23 15:05:00,
2013-10-23 08:16:00,60.8,54.9,29.83,NNW,337,0.0,0.0,81,0.00,,,0.00,Wunderground v.1.15,2013-10-23 15:16:00,
2013-10-23 08:25:00,60.9,55.0,29.83,NNW,337,0.0,0.0,81,0.00,,,0.00,Wunderground v.1.15,2013-10-23 15:25:00,
2013-10-23 08:35:00,61.1,54.9,29.83,NNW,337,0.0,0.0,80,0.00,,,0.00,Wunderground v.1.15,2013-10-23 15:35:00,
2013-10-23 08:40:00,61.1,54.5,29.83,NNW,337,0.0,1.0,79,0.00,,,0.00,Wunderground v.1.15,2013-10-23 15:40:00,
2013-10-23 08:55:00,61.4,54.5,29.83,NNW,337,0.0,0.0,78,0.00,,,0.00,Wunderground v.1.15,2013-10-23 15:55:00,
2013-10-23 09:00:00,61.4,54.1,29.83,NNW,337,0.0,0.0,77,0.00,,,0.00,Wunderground v.1.15,2013-10-23 16:00:00,
2013-10-23 09:10:00,61.6,54.0,29.83,NNW,337,0.0,0.0,76,0.00,,,0.00,Wunderground v.1.15,2013-10-23 16:10:00,
2013-10-23 09:15:00,61.6,54.0,29.83,NNW,337,0.0,0.0,76,0.00,,,0.00,Wunderground v.1.15,2013-10-23 16:15:00,
2013-10-23 09:25:00,61.7,54.1,29.84,NNW,337,0.0,1.0,76,0.00,,,0.00,Wunderground v.1.15,2013-10-23 16:25:00,
2013-10-23 09:30:00,61.9,54.2,29.84,NNW,337,0.0,1.0,76,0.00,,,0.00,Wunderground v.1.15,2013-10-23 16:30:00,
2013-10-23 09:35:00,61.9,54.2,29.83,NNW,337,0.0,1.0,76,0.00,,,0.00,Wunderground v.1.15,2013-10-23 16:35:00,
2013-10-23 09:45:00,62.2,54.5,29.83,NNW,337,1.0,1.0,76,0.00,,,0.00,Wunderground v.1.15,2013-10-23 16:45:00,
2013-10-23 09:50:00,62.4,54.7,29.83,NNW,337,1.0,1.0,76,0.00,,,0.00,Wunderground v.1.15,2013-10-23 16:50:00,
2013-10-23 09:55:00,62.4,54.4,29.83,NNW,337,1.0,1.0,75,0.00,,,0.00,Wunderground v.1.15,2013-10-23 16:55:00,
2013-10-23 10:05:00,62.5,54.5,29.84,NNW,337,1.0,1.0,75,0.00,,,0.00,Wunderground v.1.15,2013-10-23 17:05:00,
2013-10-23 10:15:00,62.7,54.7,29.84,SSW,199,3.0,5.0,75,0.00,,,0.00,Wunderground v.1.15,2013-10-23 17:15:00,
2013-10-23 10:20:00,62.7,54.7,29.84,SSW,199,3.0,5.0,75,0.00,,,0.00,Wunderground v.1.15,2013-10-23 17:20:00,
2013-10-23 10:30:00,62.5,54.5,29.84,SSW,199,2.0,3.0,75,0.00,,,0.00,Wunderground v.1.15,2013-10-23 17:30:00,
2013-10-23 10:40:00,62.5,54.5,29.84,SSW,199,2.0,2.0,75,0.00,,,0.00,Wunderground v.1.15,2013-10-23 17:40:00,
2013-10-23 10:45:00,62.7,54.7,29.84,SSW,199,1.0,2.0,75,0.00,,,0.00,Wunderground v.1.15,2013-10-23 17:45:00,
2013-10-23 10:50:00,62.8,54.4,29.84,SSW,199,1.0,2.0,74,0.00,,,0.00,Wunderground v.1.15,2013-10-23 17:50:00,
2013-10-23 11:05:00,62.8,54.4,29.84,SSW,199,2.0,2.0,74,0.00,,,0.00,Wunderground v.1.15,2013-10-23 18:05:00,
2013-10-23 11:10:00,62.8,54.4,29.84,SSW,202,3.0,3.0,74,0.00,,,0.00,Wunderground v.1.15,2013-10-23 18:10:00,
2013-10-23 11:25:00,63.0,54.6,29.84,SSW,209,3.0,3.0,74,0.00,,,0.00,Wunderground v.1.15,2013-10-23 18:25:00,
2013-10-23 11:30:00,63.0,54.2,29.84,SW,234,3.0,7.0,73,0.00,,,0.00,Wunderground v.1.15,2013-10-23 18:30:00,
2013-10-23 11:41:00,63.5,54.7,29.84,SW,229,3.0,5.0,73,0.00,,,0.00,Wunderground v.1.15,2013-10-23 18:41:00,
2013-10-23 11:45:00,63.7,54.9,29.84,South,184,3.0,6.0,73,0.00,,,0.00,Wunderground v.1.15,2013-10-23 18:45:00,
2013-10-23 11:55:00,64.0,54.4,29.84,SSW,206,3.0,3.0,71,0.00,,,0.00,Wunderground v.1.15,2013-10-23 18:55:00,
2013-10-23 12:00:00,64.0,54.4,29.84,South,179,3.0,3.0,71,0.00,,,0.00,Wunderground v.1.15,2013-10-23 19:00:00,
2013-10-23 12:15:00,64.1,54.5,29.83,SSW,192,4.0,5.0,71,0.00,,,0.00,Wunderground v.1.15,2013-10-23 19:15:00,
2013-10-23 12:20:00,64.0,54.0,29.83,SW,222,5.0,5.0,70,0.00,,,0.00,Wunderground v.1.15,2013-10-23 19:20:00,
2013-10-23 12:25:00,64.1,54.1,29.83,SW,226,5.0,5.0,70,0.00,,,0.00,Wunderground v.1.15,2013-10-23 19:25:00,
2013-10-23 12:35:00,64.5,54.1,29.83,SSW,192,4.0,4.0,69,0.00,,,0.00,Wunderground v.1.15,2013-10-23 19:35:00,
2013-10-23 12:40:00,64.6,54.2,29.83,South,191,4.0,6.0,69,0.00,,,0.00,Wunderground v.1.15,2013-10-23 19:40:00,
2013-10-23 12:45:00,64.9,54.5,29.83,South,185,5.0,11.0,69,0.00,,,0.00,Wunderground v.1.15,2013-10-23 19:45:00,
2013-10-23 12:50:00,64.8,54.4,29.82,South,185,5.0,11.0,69,0.00,,,0.00,Wunderground v.1.15,2013-10-23 19:50:00,
2013-10-23 12:55:00,64.9,53.7,29.82,SW,230,5.0,8.0,67,0.00,,,0.00,Wunderground v.1.15,2013-10-23 19:55:00,
2013-10-23 13:00:00,64.8,54.0,29.82,South,191,6.0,6.0,68,0.00,,,0.00,Wunderground v.1.15,2013-10-23 20:00:00,
2013-10-23 13:11:00,64.9,53.7,29.82,SW,230,6.0,6.0,67,0.00,,,0.00,Wunderground v.1.15,2013-10-23 20:11:00,
2013-10-23 13:15:00,64.9,54.1,29.82,South,186,5.0,6.0,68,0.00,,,0.00,Wunderground v.1.15,2013-10-23 20:15:00,
2013-10-23 13:20:00,64.9,53.7,29.82,SW,230,5.0,8.0,67,0.00,,,0.00,Wunderground v.1.15,2013-10-23 20:20:00,
2013-10-23 13:25:00,64.5,53.7,29.82,SW,222,6.0,6.0,68,0.00,,,0.00,Wunderground v.1.15,2013-10-23 20:25:00,
2013-10-23 13:35:00,64.9,54.1,29.81,WSW,250,6.0,8.0,68,0.00,,,0.00,Wunderground v.1.15,2013-10-23 20:35:00,
2013-10-23 13:45:00,65.3,53.6,29.81,SSW,213,6.0,7.0,66,0.00,,,0.00,Wunderground v.1.15,2013-10-23 20:45:00,
2013-10-23 13:55:00,65.4,53.7,29.81,WSW,253,6.0,7.0,66,0.00,,,0.00,Wunderground v.1.15,2013-10-23 20:55:00,
2013-10-23 14:05:00,65.8,53.7,29.80,SSW,200,6.0,6.0,65,0.00,,,0.00,Wunderground v.1.15,2013-10-23 21:05:00,
2013-10-23 14:10:00,65.4,53.7,29.80,SW,220,7.0,7.0,66,0.00,,,0.00,Wunderground v.1.15,2013-10-23 21:10:00,
2013-10-23 14:25:00,66.3,53.8,29.80,SW,234,5.0,10.0,64,0.00,,,0.00,Wunderground v.1.15,2013-10-23 21:25:00,
2013-10-23 14:35:00,65.1,53.0,29.80,SW,216,8.0,10.0,65,0.00,,,0.00,Wunderground v.1.15,2013-10-23 21:35:00,
2013-10-23 14:45:00,65.3,53.6,29.80,SW,217,7.0,7.0,66,0.00,,,0.00,Wunderground v.1.15,2013-10-23 21:45:00,
2013-10-23 14:50:00,65.8,53.7,29.80,SW,234,6.0,12.0,65,0.00,,,0.00,Wunderground v.1.15,2013-10-23 21:50:00,
2013-10-23 14:55:00,65.6,53.9,29.80,South,174,7.0,7.0,66,0.00,,,0.00,Wunderground v.1.15,2013-10-23 21:55:00,
2013-10-23 15:05:00,66.1,53.6,29.79,SSW,200,7.0,7.0,64,0.00,,,0.00,Wunderground v.1.15,2013-10-23 22:05:00,
2013-10-23 15:10:00,65.9,53.8,29.79,SW,217,7.0,7.0,65,0.00,,,0.00,Wunderground v.1.15,2013-10-23 22:10:00,
2013-10-23 15:15:00,66.3,53.3,29.79,WSW,247,6.0,10.0,63,0.00,,,0.00,Wunderground v.1.15,2013-10-23 22:15:00,
2013-10-23 15:25:00,66.1,53.6,29.79,South,169,6.0,7.0,64,0.00,,,0.00,Wunderground v.1.15,2013-10-23 22:25:00,
2013-10-23 15:30:00,65.8,53.3,29.79,SSW,210,6.0,7.0,64,0.00,,,0.00,Wunderground v.1.15,2013-10-23 22:30:00,
2013-10-23 15:35:00,65.4,53.3,29.79,SSW,208,7.0,7.0,65,0.00,,,0.00,Wunderground v.1.15,2013-10-23 22:35:00,
2013-10-23 15:45:00,65.8,53.3,29.79,SW,229,5.0,10.0,64,0.00,,,0.00,Wunderground v.1.15,2013-10-23 22:45:00,
2013-10-23 15:50:00,65.6,53.1,29.79,SW,217,6.0,10.0,64,0.00,,,0.00,Wunderground v.1.15,2013-10-23 22:50:00,
2013-10-23 15:55:00,65.3,53.2,29.79,SW,234,7.0,7.0,65,0.00,,,0.00,Wunderground v.1.15,2013-10-23 22:55:00,
2013-10-23 16:00:00,64.9,52.8,29.79,SW,233,7.0,8.0,65,0.00,,,0.00,Wunderground v.1.15,2013-10-23 23:00:00,
2013-10-23 16:10:00,64.3,52.7,29.79,SW,219,8.0,13.0,66,0.00,,,0.00,Wunderground v.1.15,2013-10-23 23:10:00,
2013-10-23 16:21:00,64.0,52.8,29.79,WSW,237,7.0,8.0,67,0.00,,,0.00,Wunderground v.1.15,2013-10-23 23:21:00,
2013-10-23 16:30:00,64.1,52.9,29.79,SW,217,6.0,10.0,67,0.00,,,0.00,Wunderground v.1.15,2013-10-23 23:30:00,
2013-10-23 16:41:00,64.1,52.9,29.79,SSW,206,6.0,6.0,67,0.00,,,0.00,Wunderground v.1.15,2013-10-23 23:41:00,
2013-10-23 16:45:00,64.3,53.1,29.79,SSW,212,5.0,6.0,67,0.00,,,0.00,Wunderground v.1.15,2013-10-23 23:45:00,
2013-10-23 16:55:00,64.1,53.3,29.79,SSW,206,6.0,7.0,68,0.00,,,0.00,Wunderground v.1.15,2013-10-23 23:55:00,
2013-10-23 17:15:00,63.0,53.1,29.79,SW,223,7.0,7.0,70,0.00,,,0.00,Wunderground v.1.15,2013-10-24 00:15:00,
2013-10-23 17:20:00,62.7,52.8,29.79,SW,229,7.0,7.0,70,0.00,,,0.00,Wunderground v.1.15,2013-10-24 00:20:00,
2013-10-23 17:35:00,62.0,52.5,29.80,SW,232,6.0,9.0,71,0.00,,,0.00,Wunderground v.1.15,2013-10-24 00:35:00,
2013-10-23 17:45:00,61.9,52.8,29.80,WSW,243,4.0,6.0,72,0.00,,,0.00,Wunderground v.1.15,2013-10-24 00:45:00,
2013-10-23 17:50:00,61.6,52.5,29.80,WSW,239,5.0,7.0,72,0.00,,,0.00,Wunderground v.1.15,2013-10-24 00:50:00,
2013-10-23 17:55:00,61.1,52.4,29.80,SSW,213,7.0,8.0,73,0.00,,,0.00,Wunderground v.1.15,2013-10-24 00:55:00,
2013-10-23 18:06:00,60.6,52.3,29.80,SW,222,7.0,7.0,74,0.00,,,0.00,Wunderground v.1.15,2013-10-24 01:06:00,
2013-10-23 18:10:00,60.5,52.2,29.80,WSW,237,7.0,7.0,74,0.00,,,0.00,Wunderground v.1.15,2013-10-24 01:10:00,
2013-10-23 18:15:00,60.5,52.2,29.80,SW,233,6.0,7.0,74,0.00,,,0.00,Wunderground v.1.15,2013-10-24 01:15:00,
2013-10-23 18:26:00,60.1,52.1,29.81,SW,234,5.0,8.0,75,0.00,,,0.00,Wunderground v.1.15,2013-10-24 01:26:00,
2013-10-23 18:30:00,60.1,52.1,29.81,WSW,253,5.0,8.0,75,0.00,,,0.00,Wunderground v.1.15,2013-10-24 01:30:00,
2013-10-23 18:35:00,60.1,52.1,29.81,WSW,251,4.0,8.0,75,0.00,,,0.00,Wunderground v.1.15,2013-10-24 01:35:00,
2013-10-23 18:45:00,60.0,52.1,29.81,SW,230,4.0,4.0,75,0.00,,,0.00,Wunderground v.1.15,2013-10-24 01:45:00,
2013-10-23 18:50:00,60.0,52.1,29.81,West,264,3.0,4.0,75,0.00,,,0.00,Wunderground v.1.15,2013-10-24 01:50:00,
2013-10-23 18:55:00,60.0,52.1,29.81,West,264,2.0,2.0,75,0.00,,,0.00,Wunderground v.1.15,2013-10-24 01:55:00,
2013-10-23 19:05:00,60.0,52.1,29.82,West,261,2.0,2.0,75,0.00,,,0.00,Wunderground v.1.15,2013-10-24 02:05:00,
2013-10-23 19:10:00,60.0,52.1,29.82,West,261,2.0,2.0,75,0.00,,,0.00,Wunderground v.1.15,2013-10-24 02:10:00,
2013-10-23 19:15:00,60.0,52.1,29.82,West,261,2.0,2.0,75,0.00,,,0.00,Wunderground v.1.15,2013-10-24 02:15:00,
2013-10-23 19:30:00,60.1,52.1,29.82,SSW,212,1.0,6.0,75,0.00,,,0.00,Wunderground v.1.15,2013-10-24 02:30:00,
2013-10-23 19:35:00,60.1,52.1,29.83,SSW,209,2.0,6.0,75,0.00,,,0.00,Wunderground v.1.15,2013-10-24 02:35:00,
2013-10-23 19:40:00,60.3,52.3,29.83,SSW,200,2.0,2.0,75,0.00,,,0.00,Wunderground v.1.15,2013-10-24 02:40:00,
2013-10-23 19:51:00,60.3,52.3,29.83,SW,217,2.0,2.0,75,0.00,,,0.00,Wunderground v.1.15,2013-10-24 02:51:00,
2013-10-23 19:55:00,60.5,52.5,29.83,SW,217,2.0,2.0,75,0.00,,,0.00,Wunderground v.1.15,2013-10-24 02:55:00,
2013-10-23 20:00:00,60.5,52.5,29.83,SW,216,2.0,3.0,75,0.00,,,0.00,Wunderground v.1.15,2013-10-24 03:00:00,
2013-10-23 20:05:00,60.5,52.5,29.83,SW,230,2.0,5.0,75,0.00,,,0.00,Wunderground v.1.15,2013-10-24 03:05:00,
2013-10-23 20:20:00,60.5,52.5,29.83,SSW,198,2.0,2.0,75,0.00,,,0.00,Wunderground v.1.15,2013-10-24 03:20:00,
2013-10-23 20:25:00,60.5,52.5,29.83,SW,216,2.0,5.0,75,0.00,,,0.00,Wunderground v.1.15,2013-10-24 03:25:00,
2013-10-23 20:30:00,60.5,52.9,29.83,SW,216,3.0,3.0,76,0.00,,,0.00,Wunderground v.1.15,2013-10-24 03:30:00,
2013-10-23 20:41:00,60.5,52.9,29.84,WSW,244,3.0,3.0,76,0.00,,,0.00,Wunderground v.1.15,2013-10-24 03:41:00,
2013-10-23 20:45:00,60.5,52.9,29.84,WSW,244,3.0,3.0,76,0.00,,,0.00,Wunderground v.1.15,2013-10-24 03:45:00,
2013-10-23 20:50:00,60.6,53.0,29.84,WSW,244,2.0,3.0,76,0.00,,,0.00,Wunderground v.1.15,2013-10-24 03:50:00,
2013-10-23 21:05:00,60.6,53.0,29.84,WSW,244,2.0,2.0,76,0.00,,,0.00,Wunderground v.1.15,2013-10-24 04:05:00,
2013-10-23 21:21:00,60.8,52.8,29.84,WSW,244,1.0,1.0,75,0.00,,,0.00,Wunderground v.1.15,2013-10-24 04:21:00,
2013-10-23 21:25:00,60.8,52.8,29.84,WSW,244,1.0,1.0,75,0.00,,,0.00,Wunderground v.1.15,2013-10-24 04:25:00,
2013-10-23 21:45:00,60.8,52.5,29.84,WSW,244,1.0,1.0,74,0.00,,,0.00,Wunderground v.1.15,2013-10-24 04:45:00,
2013-10-23 21:55:00,60.9,52.6,29.84,WSW,244,0.0,0.0,74,0.00,,,0.00,Wunderground v.1.15,2013-10-24 04:55:00,
2013-10-23 22:05:00,60.9,52.6,29.84,WSW,244,0.0,0.0,74,0.00,,,0.00,Wunderground v.1.15,2013-10-24 05:05:00,
2013-10-23 22:10:00,60.9,52.6,29.84,WSW,244,0.0,0.0,74,0.00,,,0.00,Wunderground v.1.15,2013-10-24 05:10:00,
2013-10-23 22:20:00,60.9,52.6,29.85,WSW,244,0.0,0.0,74,0.00,,,0.00,Wunderground v.1.15,2013-10-24 05:20:00,
2013-10-23 22:25:00,60.9,52.2,29.85,WSW,244,0.0,0.0,73,0.00,,,0.00,Wunderground v.1.15,2013-10-24 05:25:00,
2013-10-23 22:40:00,61.1,52.4,29.85,NW,308,1.0,1.0,73,0.00,,,0.00,Wunderground v.1.15,2013-10-24 05:40:00,
2013-10-23 22:45:00,61.2,52.5,29.85,NW,308,1.0,1.0,73,0.00,,,0.00,Wunderground v.1.15,2013-10-24 05:45:00,
2013-10-23 22:55:00,61.1,52.4,29.85,WNW,301,2.0,5.0,73,0.00,,,0.00,Wunderground v.1.15,2013-10-24 05:55:00,
2013-10-23 23:05:00,61.1,52.4,29.86,WNW,301,1.0,1.0,73,0.00,,,0.00,Wunderground v.1.15,2013-10-24 06:05:00,
2013-10-23 23:25:00,61.1,52.4,29.86,WNW,299,1.0,1.0,73,0.00,,,0.00,Wunderground v.1.15,2013-10-24 06:25:00,
2013-10-23 23:30:00,61.1,52.4,29.86,WNW,299,1.0,2.0,73,0.00,,,0.00,Wunderground v.1.15,2013-10-24 06:30:00,
2013-10-23 23:35:00,60.9,52.2,29.86,WNW,299,1.0,2.0,73,0.00,,,0.00,Wunderground v.1.15,2013-10-24 06:35:00,
2013-10-23 23:45:00,60.9,52.2,29.86,WNW,295,1.0,1.0,73,0.00,,,0.00,Wunderground v.1.15,2013-10-24 06:45:00,
2013-10-23 23:51:00,60.9,52.2,29.86,West,271,1.0,1.0,73,0.00,,,0.00,Wunderground v.1.15,2013-10-24 06:51:00,
2013-10-23 23:55:00,60.9,52.2,29.86,West,271,1.0,1.0,73,0.00,,,0.00,Wunderground v.1.15,2013-10-24 06:55:00,